createdAt,value
2019-03-01T00:00:01.062Z,66.30
2019-03-01T00:02:31.105Z,60.27
2019-03-01T00:05:44.348Z,69.37
2019-03-01T00:08:19.589Z,70.20
2019-03-01T00:11:41.740Z,67.60
2019-03-01T00:14:38.623Z,67.90
2019-03-01T00:17:48.400Z,72.23
2019-03-01T00:20:29.952Z,57.13
2019-03-01T00:23:37.569Z,74.43
2019-03-01T00:26:35.541Z,64.87
2019-03-01T00:29:41.402Z,72.23
2019-03-01T00:32:21.361Z,63.70
2019-03-01T00:35:19.900Z,71.40
2019-03-01T00:38:32.865Z,63.17
2019-03-01T00:41:29.285Z,60.53
2019-03-01T00:44:37.547Z,66.93
2019-03-01T00:47:07.085Z,62.50
2019-03-01T00:49:36.596Z,70.47
2019-03-01T00:52:06.549Z,72.17
2019-03-01T00:54:36.197Z,62.97
2019-03-01T00:57:06.163Z,83.60
2019-03-01T00:59:35.761Z,73.00
2019-03-01T01:02:05.471Z,67.63
2019-03-01T01:04:34.986Z,64.00
2019-03-01T01:07:04.662Z,70.47
2019-03-01T01:12:21.731Z,68.43
2019-03-01T01:14:51.182Z,79.53
2019-03-01T01:17:20.631Z,74.13
2019-03-01T01:19:50.186Z,69.90
2019-03-01T01:22:19.630Z,72.50
2019-03-01T01:24:49.077Z,65.07
2019-03-01T01:27:18.892Z,76.47
2019-03-01T01:29:48.331Z,64.20
2019-03-01T01:32:17.764Z,81.57
2019-03-01T01:34:47.447Z,69.87
2019-03-01T01:37:16.882Z,79.30
2019-03-01T01:39:46.398Z,72.53
2019-03-01T01:42:16.178Z,76.53
2019-03-01T01:44:45.655Z,71.23
2019-03-01T01:47:15.084Z,68.33
2019-03-01T01:49:44.760Z,77.37
2019-03-01T01:52:14.215Z,69.60
2019-03-01T01:54:43.648Z,74.20
2019-03-01T01:57:13.558Z,68.97
2019-03-01T01:59:43.014Z,80.40
2019-03-01T02:02:12.458Z,78.67
2019-03-01T02:04:42.028Z,78.80
2019-03-01T02:07:11.458Z,77.23
2019-03-01T02:09:40.884Z,67.30
2019-03-01T02:12:10.488Z,81.47
2019-03-01T02:14:39.994Z,79.83
2019-03-01T02:17:09.414Z,76.07
2019-03-01T02:19:38.927Z,88.00
2019-03-01T02:22:08.541Z,76.37
2019-03-01T02:24:37.985Z,79.10
2019-03-01T02:27:25.481Z,68.77
2019-03-01T02:29:55.079Z,69.27
2019-03-01T02:32:44.628Z,72.93
2019-03-01T02:35:16.137Z,73.60
2019-03-01T02:37:45.633Z,77.10
2019-03-01T02:40:15.437Z,74.93
2019-03-01T02:42:44.881Z,81.20
2019-03-01T02:45:16.515Z,79.30
2019-03-01T02:47:46.017Z,70.60
2019-03-01T02:50:16.546Z,77.03
2019-03-01T02:52:46.016Z,84.07
2019-03-01T02:55:16.601Z,79.60
2019-03-01T02:57:46.298Z,70.73
2019-03-01T03:00:18.361Z,74.23
2019-03-01T03:02:47.840Z,75.87
2019-03-01T03:05:17.277Z,78.40
2019-03-01T03:07:51.442Z,77.07
2019-03-01T03:10:20.908Z,77.70
2019-03-01T03:12:51.637Z,95.00
2019-03-01T03:15:29.032Z,73.67
2019-03-01T03:17:58.607Z,79.07
2019-03-01T03:20:28.021Z,79.80
2019-03-01T03:22:57.485Z,84.57
2019-03-01T03:25:26.953Z,80.27
2019-03-01T03:27:56.578Z,86.83
2019-03-01T03:30:26.015Z,81.97
2019-03-01T03:32:55.498Z,78.87
2019-03-01T03:35:25.265Z,81.83
2019-03-01T03:37:54.718Z,90.67
2019-03-01T03:40:24.232Z,85.20
2019-03-01T03:42:53.841Z,78.20
2019-03-01T03:45:23.286Z,86.27
2019-03-01T03:47:52.789Z,79.63
2019-03-01T03:50:22.345Z,103.43
2019-03-01T03:52:51.837Z,82.23
2019-03-01T03:55:21.474Z,91.70
2019-03-01T03:57:51.138Z,82.23
2019-03-01T04:00:20.695Z,85.07
2019-03-01T04:02:50.185Z,78.80
2019-03-01T04:05:19.814Z,82.63
2019-03-01T04:07:49.271Z,84.50
2019-03-01T04:10:18.751Z,80.23
2019-03-01T04:12:48.432Z,91.17
2019-03-01T04:15:17.882Z,83.03
2019-03-01T04:17:47.386Z,85.73
2019-03-01T04:20:17.482Z,90.30
2019-03-01T04:22:46.936Z,84.63
2019-03-01T04:25:16.470Z,74.00
2019-03-01T04:27:45.930Z,79.50
2019-03-01T04:30:16.744Z,80.00
2019-03-01T04:32:46.898Z,79.23
2019-03-01T04:35:17.114Z,82.43
2019-03-01T04:37:46.584Z,79.37
2019-03-01T04:40:16.203Z,90.07
2019-03-01T04:42:45.924Z,78.60
2019-03-01T04:45:15.379Z,82.13
2019-03-01T04:47:45.361Z,82.13
2019-03-01T04:50:14.898Z,85.27
2019-03-01T04:52:44.351Z,84.87
2019-03-01T04:55:19.089Z,87.47
2019-03-01T04:57:48.523Z,84.23
2019-03-01T05:00:23.010Z,77.17
2019-03-01T05:02:52.640Z,75.37
2019-03-01T05:05:22.093Z,84.83
2019-03-01T05:07:51.690Z,82.37
2019-03-01T05:10:25.136Z,81.23
2019-03-01T05:12:54.589Z,73.87
2019-03-01T05:15:24.707Z,80.40
2019-03-01T05:17:54.421Z,76.73
2019-03-01T05:20:23.889Z,81.17
2019-03-01T05:22:53.394Z,75.17
2019-03-01T05:25:23.163Z,78.23
2019-03-01T05:27:52.605Z,90.53
2019-03-01T05:30:22.118Z,73.20
2019-03-01T05:32:51.970Z,82.67
2019-03-01T05:35:21.434Z,79.13
2019-03-01T05:37:51.120Z,79.47
2019-03-01T05:40:20.561Z,75.00
2019-03-01T05:42:50.045Z,78.33
2019-03-01T05:45:21.796Z,84.40
2019-03-01T05:47:51.265Z,93.03
2019-03-01T05:50:20.759Z,98.10
2019-03-01T05:52:50.244Z,98.03
2019-03-01T05:55:19.706Z,90.27
2019-03-01T05:58:45.621Z,86.43
2019-03-01T06:01:38.501Z,83.10
2019-03-01T06:04:18.264Z,76.63
2019-03-01T06:07:15.542Z,78.53
2019-03-01T06:10:08.273Z,84.97
2019-03-01T06:13:03.745Z,84.60
2019-03-01T06:16:03.256Z,91.27
2019-03-01T06:19:25.057Z,82.07
2019-03-01T06:22:27.505Z,78.77
2019-03-01T06:25:41.051Z,83.83
2019-03-01T06:28:18.256Z,87.33
2019-03-01T06:31:20.381Z,82.63
2019-03-01T06:34:19.506Z,71.97
2019-03-01T06:37:35.768Z,66.03
2019-03-01T06:40:49.421Z,70.80
2019-03-01T06:43:43.891Z,66.67
2019-03-01T06:47:09.365Z,77.53
2019-03-01T06:49:59.199Z,65.77
2019-03-01T06:52:28.841Z,67.77
2019-03-01T06:54:58.330Z,71.80
2019-03-01T06:57:27.841Z,72.47
2019-03-01T06:59:57.729Z,79.77
2019-03-01T07:02:34.109Z,65.53
2019-03-01T07:05:03.746Z,71.20
2019-03-01T07:07:33.193Z,61.40
2019-03-01T07:10:02.652Z,62.87
2019-03-01T07:12:32.655Z,70.63
2019-03-01T07:15:02.113Z,67.50
2019-03-01T07:17:31.849Z,78.33
2019-03-01T07:20:01.367Z,68.37
2019-03-01T07:22:30.817Z,77.30
2019-03-01T07:25:00.339Z,74.67
2019-03-01T07:27:31.049Z,66.13
2019-03-01T07:30:00.842Z,75.77
2019-03-01T07:32:30.427Z,81.20
2019-03-01T07:34:59.950Z,83.23
2019-03-01T07:37:29.490Z,62.43
2019-03-01T07:39:58.927Z,66.23
2019-03-01T07:42:28.412Z,63.00
2019-03-01T07:44:58.058Z,55.03
2019-03-01T07:47:27.529Z,60.63
2019-03-01T07:49:57.284Z,46.50
2019-03-01T07:52:26.743Z,48.97
2019-03-01T07:54:56.233Z,51.80
2019-03-01T07:57:25.722Z,48.13
2019-03-01T07:59:55.633Z,50.10
2019-03-01T08:02:25.129Z,41.23
2019-03-01T08:04:54.936Z,44.93
2019-03-01T08:07:24.390Z,38.03
2019-03-01T08:09:54.283Z,39.47
2019-03-01T08:12:23.915Z,46.10
2019-03-01T08:14:53.514Z,40.97
2019-03-01T08:17:22.972Z,38.67
2019-03-01T08:19:54.846Z,46.20
2019-03-01T08:22:25.018Z,42.33
2019-03-01T08:24:54.785Z,43.30
2019-03-01T08:27:25.266Z,40.27
2019-03-01T08:29:55.159Z,42.33
2019-03-01T08:32:27.442Z,39.47
2019-03-01T08:34:55.727Z,42.10
2019-03-01T08:37:25.251Z,41.60
2019-03-01T08:39:54.706Z,45.07
2019-03-01T08:42:24.181Z,42.30
2019-03-01T08:44:54.576Z,37.13
2019-03-01T08:47:24.847Z,40.27
2019-03-01T08:49:54.565Z,45.33
2019-03-01T08:52:24.314Z,40.80
2019-03-01T08:54:53.862Z,34.37
2019-03-01T08:57:26.529Z,38.17
2019-03-01T08:59:54.465Z,28.90
2019-03-01T09:02:23.938Z,35.73
2019-03-01T09:04:53.608Z,37.07
2019-03-01T09:07:23.097Z,34.73
2019-03-01T09:09:53.767Z,31.07
2019-03-01T09:12:24.031Z,35.17
2019-03-01T09:14:53.507Z,38.23
2019-03-01T09:17:23.000Z,33.70
2019-03-01T09:19:52.509Z,41.07
2019-03-01T09:22:24.245Z,36.90
2019-03-01T09:24:53.405Z,39.37
2019-03-01T09:27:22.923Z,33.47
2019-03-01T09:29:52.529Z,38.07
2019-03-01T09:32:21.990Z,29.60
2019-03-01T09:34:54.649Z,33.10
2019-03-01T09:37:24.373Z,38.33
2019-03-01T09:39:54.754Z,36.77
2019-03-01T09:42:24.624Z,32.30
2019-03-01T09:44:54.141Z,36.17
2019-03-01T09:47:23.610Z,34.80
2019-03-01T09:49:56.641Z,36.07
2019-03-01T09:52:24.630Z,31.23
2019-03-01T09:54:54.127Z,28.93
2019-03-01T09:57:23.842Z,31.13
2019-03-01T09:59:53.313Z,30.43
2019-03-01T10:02:22.765Z,33.87
2019-03-01T10:04:52.441Z,38.57
2019-03-01T10:07:22.449Z,39.87
2019-03-01T10:09:52.019Z,29.83
2019-03-01T10:12:21.477Z,30.30
2019-03-01T10:14:50.941Z,26.27
2019-03-01T10:17:20.486Z,24.80
2019-03-01T10:19:49.990Z,21.37
2019-03-01T10:22:19.441Z,23.47
2019-03-01T10:24:49.337Z,24.47
2019-03-01T10:27:18.804Z,21.17
2019-03-01T10:29:48.293Z,22.07
2019-03-01T10:32:17.915Z,19.50
2019-03-01T10:34:47.350Z,19.60
2019-03-01T10:37:16.857Z,24.27
2019-03-01T10:39:55.237Z,26.10
2019-03-01T10:42:17.849Z,24.30
2019-03-01T10:44:47.315Z,21.93
2019-03-01T10:47:16.784Z,19.77
2019-03-01T10:49:46.366Z,17.97
2019-03-01T10:52:15.867Z,20.97
2019-03-01T10:54:46.341Z,25.00
2019-03-01T10:57:16.025Z,20.60
2019-03-01T10:59:45.522Z,20.60
2019-03-01T11:02:15.000Z,19.07
2019-03-01T11:04:44.581Z,30.67
2019-03-01T11:07:14.107Z,19.97
2019-03-01T11:09:43.543Z,21.87
2019-03-01T11:12:13.137Z,23.57
2019-03-01T11:14:42.621Z,20.90
2019-03-01T11:17:12.075Z,17.80
2019-03-01T11:19:41.934Z,18.53
2019-03-01T11:22:11.376Z,22.00
2019-03-01T11:24:40.890Z,17.20
2019-03-01T11:27:13.057Z,18.47
2019-03-01T11:29:41.820Z,19.67
2019-03-01T11:32:11.894Z,22.80
2019-03-01T11:34:41.362Z,17.43
2019-03-01T11:37:10.842Z,19.50
2019-03-01T11:39:40.654Z,16.43
2019-03-01T11:42:10.181Z,18.10
2019-03-01T11:44:39.657Z,18.93
2019-03-01T11:47:10.148Z,23.53
2019-03-01T11:49:40.408Z,17.83
2019-03-01T11:52:18.352Z,20.70
2019-03-01T11:54:47.899Z,15.70
2019-03-01T11:57:17.350Z,21.07
2019-03-01T11:59:48.079Z,16.33
2019-03-01T12:02:17.666Z,18.30
2019-03-01T12:04:47.279Z,19.63
2019-03-01T12:07:16.714Z,23.00
2019-03-01T12:09:46.583Z,20.00
2019-03-01T12:12:17.227Z,22.13
2019-03-01T12:14:46.702Z,22.23
2019-03-01T12:17:16.180Z,18.53
2019-03-01T12:19:45.705Z,18.77
2019-03-01T12:22:17.414Z,17.83
2019-03-01T12:24:46.297Z,17.07
2019-03-01T12:27:15.751Z,18.97
2019-03-01T12:29:45.557Z,18.80
2019-03-01T12:32:15.018Z,17.17
2019-03-01T12:34:44.483Z,17.97
2019-03-01T12:37:14.120Z,19.03
2019-03-01T12:39:43.604Z,20.17
2019-03-01T12:42:13.006Z,17.50
2019-03-01T12:44:42.640Z,20.20
2019-03-01T12:47:12.115Z,18.60
2019-03-01T12:49:41.589Z,21.03
2019-03-01T12:52:11.237Z,21.47
2019-03-01T12:54:40.713Z,19.50
2019-03-01T12:57:10.167Z,24.33
2019-03-01T12:59:40.354Z,26.50
2019-03-01T13:02:10.155Z,19.53
2019-03-01T13:04:39.588Z,18.17
2019-03-01T13:07:10.562Z,19.00
2019-03-01T13:09:40.711Z,20.67
2019-03-01T13:12:10.203Z,21.57
2019-03-01T13:14:40.320Z,18.63
2019-03-01T13:17:09.965Z,20.50
2019-03-01T13:19:41.749Z,18.93
2019-03-01T13:22:11.241Z,22.10
2019-03-01T13:24:41.141Z,25.07
2019-03-01T13:27:10.913Z,20.70
2019-03-01T13:29:40.557Z,21.70
2019-03-01T13:32:10.017Z,21.27
2019-03-01T13:34:39.496Z,24.43
2019-03-01T13:37:15.190Z,23.17
2019-03-01T13:39:40.387Z,22.50
2019-03-01T13:42:10.321Z,24.17
2019-03-01T13:44:41.066Z,20.77
2019-03-01T13:47:10.560Z,24.83
2019-03-01T13:49:40.099Z,20.03
2019-03-01T13:52:09.597Z,17.90
2019-03-01T13:54:39.115Z,21.27
2019-03-01T13:57:11.438Z,25.03
2019-03-01T13:59:40.401Z,17.00
2019-03-01T14:02:11.271Z,11.63
2019-03-01T14:04:41.386Z,14.10
2019-03-01T14:07:30.000Z,13.07
2019-03-01T14:10:00.867Z,11.97
2019-03-01T14:12:30.672Z,16.37
2019-03-01T14:15:02.915Z,11.60
2019-03-01T14:17:31.976Z,8.30
2019-03-01T14:20:01.425Z,7.87
2019-03-01T14:22:31.302Z,7.77
2019-03-01T14:25:02.463Z,7.40
2019-03-01T14:27:32.812Z,6.27
2019-03-01T14:30:02.354Z,4.00
2019-03-01T14:32:31.981Z,8.13
2019-03-01T14:35:01.430Z,7.60
2019-03-01T14:37:31.461Z,4.63
2019-03-01T14:40:00.917Z,4.20
2019-03-01T14:42:30.796Z,5.97
2019-03-01T14:45:03.565Z,7.80
2019-03-01T14:47:34.350Z,6.53
2019-03-01T14:50:03.850Z,6.00
2019-03-01T14:52:33.520Z,7.40
2019-03-01T14:55:02.992Z,7.03
2019-03-01T14:57:39.385Z,9.77
2019-03-01T15:00:30.927Z,17.83
2019-03-01T15:03:27.698Z,4.60
2019-03-01T15:05:57.209Z,7.00
2019-03-01T15:08:26.712Z,8.40
2019-03-01T15:10:56.434Z,10.97
2019-03-01T15:13:27.803Z,15.10
2019-03-01T15:15:57.248Z,12.80
2019-03-01T15:18:28.995Z,8.57
2019-03-01T15:21:02.387Z,17.40
2019-03-01T15:23:29.126Z,22.90
2019-03-01T15:25:59.122Z,32.67
2019-03-01T15:28:28.725Z,10.87
2019-03-01T15:30:58.385Z,19.77
2019-03-01T15:33:27.828Z,12.90
2019-03-01T15:35:57.701Z,9.20
2019-03-01T15:38:27.670Z,10.50
2019-03-01T15:40:58.328Z,9.37
2019-03-01T15:43:29.900Z,6.07
2019-03-01T15:45:59.512Z,9.80
2019-03-01T15:48:29.007Z,11.17
2019-03-01T15:50:59.080Z,12.10
2019-03-01T15:53:29.956Z,12.03
2019-03-01T15:56:02.128Z,12.40
2019-03-01T15:58:33.225Z,7.97
2019-03-01T16:01:01.768Z,6.70
2019-03-01T16:03:31.345Z,8.47
2019-03-01T16:06:01.173Z,6.90
2019-03-01T16:08:30.684Z,8.97
2019-03-01T16:11:00.227Z,6.70
2019-03-01T16:13:29.746Z,5.13
2019-03-01T16:15:59.397Z,5.73
2019-03-01T16:18:29.036Z,7.83
2019-03-01T16:20:58.520Z,4.50
2019-03-01T16:23:30.182Z,9.23
2019-03-01T16:25:59.612Z,5.07
2019-03-01T16:28:31.258Z,7.37
2019-03-01T16:31:00.435Z,7.77
2019-03-01T16:33:30.074Z,7.90
2019-03-01T16:36:01.030Z,6.97
2019-03-01T16:38:40.405Z,8.17
2019-03-01T16:41:07.461Z,8.97
2019-03-01T16:43:33.036Z,7.80
2019-03-01T16:46:02.513Z,11.07
2019-03-01T16:48:31.980Z,10.07
2019-03-01T16:51:01.685Z,7.80
2019-03-01T16:53:31.167Z,3.87
2019-03-01T16:56:02.576Z,6.70
2019-03-01T16:58:31.790Z,3.83
2019-03-01T17:01:01.401Z,5.43
2019-03-01T17:03:31.049Z,6.37
2019-03-01T17:06:00.565Z,4.27
2019-03-01T17:08:30.031Z,5.30
2019-03-01T17:11:02.632Z,7.27
2019-03-01T17:13:30.646Z,7.30
2019-03-01T17:16:00.157Z,9.77
2019-03-01T17:18:30.101Z,9.87
2019-03-01T17:20:59.627Z,11.93
2019-03-01T17:23:29.135Z,9.87
2019-03-01T17:25:58.562Z,7.57
2019-03-01T17:28:28.054Z,8.90
2019-03-01T17:30:58.220Z,6.63
2019-03-01T17:33:27.787Z,12.93
2019-03-01T17:35:57.353Z,12.17
2019-03-01T17:38:26.797Z,6.37
2019-03-01T17:40:56.288Z,8.97
2019-03-01T17:43:26.175Z,17.87
2019-03-01T17:45:57.865Z,11.43
2019-03-01T17:48:26.718Z,8.43
2019-03-01T17:50:56.229Z,6.87
2019-03-01T17:53:25.679Z,6.77
2019-03-01T17:55:55.154Z,9.97
2019-03-01T17:58:24.618Z,7.47
2019-03-01T18:00:54.068Z,9.90
2019-03-01T18:03:23.781Z,10.33
2019-03-01T18:05:54.280Z,7.77
2019-03-01T18:08:23.750Z,5.97
2019-03-01T18:10:53.343Z,7.00
2019-03-01T18:13:22.825Z,5.07
2019-03-01T18:15:52.283Z,8.23
2019-03-01T18:18:21.863Z,12.87
2019-03-01T18:20:51.393Z,10.60
2019-03-01T18:23:20.847Z,11.57
2019-03-01T18:25:50.748Z,7.23
2019-03-01T18:28:20.205Z,10.10
2019-03-01T18:30:52.028Z,10.93
2019-03-01T18:33:22.768Z,7.93
2019-03-01T18:35:55.449Z,15.03
2019-03-01T18:38:23.553Z,13.40
2019-03-01T18:40:53.106Z,10.27
2019-03-01T18:43:22.974Z,10.03
2019-03-01T18:45:52.465Z,8.97
2019-03-01T18:48:22.073Z,10.40
2019-03-01T18:50:51.631Z,8.27
2019-03-01T18:53:21.096Z,10.13
2019-03-01T18:55:53.010Z,9.63
2019-03-01T18:58:25.725Z,9.10
2019-03-01T19:00:55.340Z,8.67
2019-03-01T19:03:24.838Z,6.43
2019-03-01T19:05:54.316Z,6.90
2019-03-01T19:08:24.212Z,6.63
2019-03-01T19:10:54.470Z,10.47
2019-03-01T19:13:25.509Z,15.13
2019-03-01T19:15:55.131Z,8.43
2019-03-01T19:18:24.623Z,6.57
2019-03-01T19:20:55.273Z,9.07
2019-03-01T19:23:25.731Z,6.97
2019-03-01T19:25:57.905Z,7.80
2019-03-01T19:28:27.582Z,9.00
2019-03-01T19:30:57.117Z,17.73
2019-03-01T19:33:26.697Z,17.97
2019-03-01T19:35:56.241Z,8.27
2019-03-01T19:38:25.896Z,7.00
2019-03-01T19:40:55.578Z,10.37
2019-03-01T19:43:25.061Z,10.27
2019-03-01T19:45:54.532Z,11.20
2019-03-01T19:48:24.178Z,10.27
2019-03-01T19:50:54.133Z,11.80
2019-03-01T19:53:25.487Z,11.77
2019-03-01T19:55:54.819Z,15.00
2019-03-01T19:58:24.365Z,10.73
2019-03-01T20:00:53.976Z,7.53
2019-03-01T20:03:23.473Z,7.53
2019-03-01T20:05:52.951Z,8.43
2019-03-01T20:08:22.465Z,7.20
2019-03-01T20:10:52.103Z,7.33
2019-03-01T20:13:21.697Z,9.33
2019-03-01T20:15:51.203Z,12.93
2019-03-01T20:18:21.373Z,7.37
2019-03-01T20:20:50.934Z,8.40
2019-03-01T20:23:20.440Z,6.03
2019-03-01T20:25:51.009Z,11.87
2019-03-01T20:28:21.050Z,11.87
2019-03-01T20:30:51.335Z,14.83
2019-03-01T20:33:23.483Z,7.20
2019-03-01T20:35:52.154Z,7.70
2019-03-01T20:38:21.619Z,4.27
2019-03-01T20:40:51.080Z,11.10
2019-03-01T20:43:20.767Z,5.17
2019-03-01T20:45:50.253Z,9.60
2019-03-01T20:48:19.711Z,8.03
2019-03-01T20:50:51.017Z,10.13
2019-03-01T20:53:20.510Z,7.87
2019-03-01T20:55:51.008Z,10.03
2019-03-01T20:58:22.153Z,6.37
2019-03-01T21:00:51.876Z,8.10
2019-03-01T21:03:24.034Z,9.17
2019-03-01T21:05:52.569Z,8.27
2019-03-01T21:08:22.082Z,6.93
2019-03-01T21:10:51.585Z,5.90
2019-03-01T21:13:21.145Z,7.30
2019-03-01T21:15:50.636Z,7.57
2019-03-01T21:18:20.104Z,12.70
2019-03-01T21:20:50.597Z,6.73
2019-03-01T21:23:20.921Z,9.50
2019-03-01T21:25:50.365Z,12.30
2019-03-01T21:28:19.857Z,8.47
2019-03-01T21:30:49.466Z,9.53
2019-03-01T21:33:19.036Z,9.10
2019-03-01T21:35:51.169Z,6.90
2019-03-01T21:38:19.584Z,6.73
2019-03-01T21:40:49.473Z,8.57
2019-03-01T21:43:19.007Z,8.17
2019-03-01T21:45:48.644Z,8.53
2019-03-01T21:48:18.670Z,6.83
2019-03-01T21:50:48.338Z,9.97
2019-03-01T21:53:17.772Z,4.20
2019-03-01T21:55:47.216Z,12.10
2019-03-01T21:58:17.232Z,11.60
2019-03-01T22:00:46.926Z,10.67
2019-03-01T22:03:16.402Z,20.93
2019-03-01T22:05:48.579Z,10.77
2019-03-01T22:08:17.002Z,9.63
2019-03-01T22:10:46.467Z,12.10
2019-03-01T22:13:16.084Z,13.10
2019-03-01T22:15:45.638Z,5.70
2019-03-01T22:18:15.101Z,13.17
2019-03-01T22:20:45.635Z,11.07
2019-03-01T22:23:15.808Z,8.07
2019-03-01T22:25:46.172Z,13.43
2019-03-01T22:28:15.750Z,8.97
2019-03-01T22:30:45.242Z,14.73
2019-03-01T22:33:17.378Z,9.77
2019-03-01T22:36:00.560Z,10.40
2019-03-01T22:38:30.161Z,9.63
2019-03-01T22:41:00.529Z,8.80
2019-03-01T22:43:31.331Z,7.90
2019-03-01T22:46:00.835Z,7.77
2019-03-01T22:48:30.397Z,8.20
2019-03-01T22:50:59.889Z,15.97
2019-03-01T22:53:29.360Z,12.17
2019-03-01T22:55:59.161Z,6.87
2019-03-01T22:58:28.605Z,3.83
2019-03-01T23:01:18.068Z,7.20
2019-03-01T23:03:51.499Z,4.77
2019-03-01T23:06:21.456Z,4.67
2019-03-01T23:08:50.920Z,7.53
2019-03-01T23:11:20.423Z,4.93
2019-03-01T23:13:52.681Z,10.80
2019-03-01T23:16:21.303Z,3.33
2019-03-01T23:18:56.638Z,6.30
2019-03-01T23:21:21.967Z,8.33
2019-03-01T23:23:51.918Z,5.97
2019-03-01T23:26:21.760Z,5.07
2019-03-01T23:28:52.330Z,6.73
2019-03-01T23:31:21.850Z,4.33
2019-03-01T23:33:51.626Z,5.37
2019-03-01T23:36:21.111Z,5.33
2019-03-01T23:38:51.311Z,5.97
2019-03-01T23:41:20.866Z,4.30
2019-03-01T23:43:50.519Z,6.50
2019-03-01T23:46:20.024Z,5.97
2019-03-01T23:48:49.797Z,6.37
2019-03-01T23:51:19.251Z,4.97
2019-03-01T23:53:48.742Z,5.57
2019-03-01T23:56:18.177Z,7.80
2019-03-01T23:58:47.976Z,5.00
